Time;durP1;ratioP1;P1;durP2;ratioP2;P2;SDS_P1;SDS_P2;PMS_P1;PMS_P2;Temp;Humidity;BMP_temperature;BMP_pressure;BME280_temperature;BME280_humidity;BME280_pressure;Samples;Min_cycle;Max_cycle;Signal;HPM_P1;HPM_P2
2023/10/09 00:00:51;;;;;;;12.43;8.02;;;12.50;99.90;;;;;;4786096;29;20046;-82
2023/10/09 00:03:18;;;;;;;14.50;9.13;;;12.50;99.90;;;;;;4783003;29;20083;-82
2023/10/09 00:05:46;;;;;;;17.85;10.02;;;12.50;99.90;;;;;;4776477;29;20134;-82
2023/10/09 00:08:18;;;;;;;12.63;9.88;;;12.50;99.90;;;;;;4807569;29;20131;-82
2023/10/09 00:10:53;;;;;;;15.15;10.38;;;12.50;99.90;;;;;;4807663;29;20053;-82
2023/10/09 00:13:32;;;;;;;15.68;10.65;;;12.50;99.90;;;;;;4797004;29;20113;-82
2023/10/09 00:16:09;;;;;;;18.98;11.50;;;12.50;99.90;;;;;;4789436;29;20391;-82
2023/10/09 00:18:35;;;;;;;18.42;11.95;;;12.60;99.90;;;;;;4781244;29;20494;-82
2023/10/09 00:21:11;;;;;;;20.50;13.65;;;12.60;99.90;;;;;;4787267;29;20098;-82
2023/10/09 00:23:37;;;;;;;20.13;14.23;;;12.60;99.90;;;;;;4795345;29;20046;-82
2023/10/09 00:26:19;;;;;;;23.40;16.98;;;12.60;99.90;;;;;;4772298;29;20081;-82
2023/10/09 00:28:47;;;;;;;23.77;16.92;;;12.60;99.90;;;;;;4796321;29;20055;-82
2023/10/09 00:31:16;;;;;;;23.90;15.57;;;12.60;99.90;;;;;;4803556;29;20054;-82
2023/10/09 00:33:43;;;;;;;24.63;18.80;;;12.60;99.90;;;;;;4779834;29;20098;-82
2023/10/09 00:36:09;;;;;;;29.77;21.15;;;12.60;99.90;;;;;;4773836;29;20486;-82
2023/10/09 00:38:36;;;;;;;33.60;22.35;;;12.70;99.90;;;;;;4774256;29;20054;-82
2023/10/09 00:41:10;;;;;;;46.78;24.00;;;12.70;99.90;;;;;;4788244;29;20091;-82
2023/10/09 00:43:37;;;;;;;43.80;23.65;;;12.70;99.90;;;;;;4779614;29;20143;-82
2023/10/09 00:49:02;;;;;;;37.97;22.48;;;12.80;99.90;;;;;;4781153;29;20519;-82
2023/10/09 00:51:34;;;;;;;35.45;24.75;;;12.80;99.90;;;;;;4781721;29;20060;-81
2023/10/09 00:54:14;;;;;;;33.55;22.70;;;12.80;99.90;;;;;;4768227;29;20050;-82
2023/10/09 00:56:51;;;;;;;31.88;22.40;;;12.80;99.90;;;;;;4798546;29;20054;-82
2023/10/09 00:59:20;;;;;;;38.55;26.60;;;12.80;99.90;;;;;;4807128;29;20058;-82
2023/10/09 01:02:04;;;;;;;52.03;30.40;;;12.80;99.90;;;;;;4781199;29;20054;-82
2023/10/09 01:04:36;;;;;;;41.75;28.30;;;12.80;99.90;;;;;;4772769;29;20046;-82
2023/10/09 01:07:15;;;;;;;49.08;29.17;;;12.80;99.90;;;;;;4788493;29;20039;-82
2023/10/09 01:09:44;;;;;;;37.42;26.90;;;12.80;99.90;;;;;;4783671;29;20137;-82
2023/10/09 01:12:20;;;;;;;44.78;31.33;;;12.80;99.90;;;;;;4779395;29;20050;-82
2023/10/09 01:14:52;;;;;;;47.90;33.25;;;12.90;99.90;;;;;;4781544;29;20510;-81
2023/10/09 01:17:30;;;;;;;42.72;30.70;;;12.90;99.90;;;;;;4788710;29;20507;-82
2023/10/09 01:19:56;;;;;;;46.55;31.65;;;12.90;99.90;;;;;;4788658;29;20575;-82
2023/10/09 01:22:22;;;;;;;48.00;31.50;;;12.90;99.90;;;;;;4772273;29;20043;-81
2023/10/09 01:24:50;;;;;;;48.95;30.58;;;12.90;99.90;;;;;;4786233;29;20126;-81
2023/10/09 01:27:15;;;;;;;46.83;32.67;;;12.90;99.90;;;;;;4789188;29;20070;-81
2023/10/09 01:29:42;;;;;;;52.13;29.35;;;12.90;99.90;;;;;;4777583;29;20401;-82
2023/10/09 01:32:16;;;;;;;57.30;32.33;;;12.90;99.90;;;;;;4787950;29;20122;-82
2023/10/09 01:34:42;;;;;;;46.05;31.77;;;12.90;99.90;;;;;;4794012;29;20050;-82
2023/10/09 01:37:18;;;;;;;64.03;35.80;;;13.00;99.90;;;;;;4796361;29;20043;-81
2023/10/09 01:39:48;;;;;;;71.22;41.03;;;12.90;99.90;;;;;;4777493;29;20498;-82
2023/10/09 01:42:24;;;;;;;52.70;37.47;;;13.00;99.90;;;;;;4791963;29;20058;-82
2023/10/09 01:44:51;;;;;;;63.88;42.03;;;13.00;99.90;;;;;;4780800;29;20049;-81
2023/10/09 01:47:18;;;;;;;74.88;43.90;;;13.00;99.90;;;;;;4795469;29;20410;-81
2023/10/09 01:49:48;;;;;;;79.63;45.00;;;13.10;99.90;;;;;;4769782;30;20043;-81
2023/10/09 01:52:18;;;;;;;65.53;41.95;;;13.10;99.90;;;;;;4774040;30;20047;-82
2023/10/09 01:54:51;;;;;;;88.88;52.30;;;13.10;99.90;;;;;;4768946;29;20043;-82
2023/10/09 01:57:24;;;;;;;;;;;13.10;99.90;;;;;;4791533;29;20417;-82
2023/10/09 01:59:53;;;;;;;65.10;43.42;;;13.10;99.90;;;;;;4817027;29;20276;-82
2023/10/09 02:07:40;;;;;;;73.68;47.42;;;13.20;99.90;;;;;;4821090;29;20112;-81
2023/10/09 02:10:48;;;;;;;79.95;48.65;;;13.20;99.90;;;;;;4776637;29;20066;-82
2023/10/09 02:13:07;;;;;;;77.63;45.25;;;13.20;99.90;;;;;;4800101;29;20126;-83
2023/10/09 02:21:34;;;;;;;115.43;58.15;;;13.20;99.90;;;;;;4791302;29;20051;-82
2023/10/09 02:26:25;;;;;;;82.93;52.42;;;13.30;99.90;;;;;;4790220;29;20126;-81
2023/10/09 02:29:15;;;;;;;86.47;51.28;;;13.20;99.90;;;;;;4786061;29;20050;-82
2023/10/09 02:31:43;;;;;;;128.63;64.65;;;13.30;99.90;;;;;;4790736;29;20038;-82
2023/10/09 02:34:10;;;;;;;83.68;52.00;;;13.30;99.90;;;;;;4769615;29;20538;-82
2023/10/09 02:36:42;;;;;;;87.95;54.47;;;13.30;99.90;;;;;;4788324;29;20047;-82
2023/10/09 02:39:22;;;;;;;95.45;57.08;;;13.30;99.90;;;;;;4786773;29;20655;-82
2023/10/09 02:41:50;;;;;;;102.18;57.72;;;13.30;99.90;;;;;;4794155;29;20413;-82
2023/10/09 02:44:17;;;;;;;96.10;61.17;;;13.30;99.90;;;;;;4777843;29;20334;-82
2023/10/09 02:46:44;;;;;;;108.78;61.17;;;13.30;99.90;;;;;;4768934;29;20058;-82
2023/10/09 02:49:15;;;;;;;171.88;79.43;;;13.30;99.90;;;;;;4790861;29;20051;-82
2023/10/09 02:51:41;;;;;;;111.05;64.65;;;13.40;99.90;;;;;;4774869;29;20092;-82
2023/10/09 02:54:17;;;;;;;113.82;63.75;;;13.40;99.90;;;;;;4775145;29;20043;-82
2023/10/09 02:56:49;;;;;;;111.30;61.40;;;13.40;99.90;;;;;;4768987;29;20107;-82
2023/10/09 02:59:21;;;;;;;176.07;81.15;;;13.50;99.90;;;;;;4790731;29;20138;-82
2023/10/09 03:01:48;;;;;;;128.60;68.82;;;13.50;99.90;;;;;;4775177;30;20095;-82
2023/10/09 03:04:14;;;;;;;136.65;70.40;;;13.50;99.90;;;;;;4766719;29;20046;-82
2023/10/09 03:06:49;;;;;;;170.95;79.45;;;13.50;99.90;;;;;;4790581;29;20112;-82
2023/10/09 03:09:26;;;;;;;131.98;70.43;;;13.50;99.90;;;;;;4775682;29;20053;-82
2023/10/09 03:12:00;;;;;;;159.25;78.13;;;13.60;99.90;;;;;;4794246;29;20050;-82
2023/10/09 03:14:28;;;;;;;111.47;68.20;;;13.60;99.90;;;;;;4784456;29;20051;-82
2023/10/09 03:16:56;;;;;;;143.73;74.20;;;13.60;99.90;;;;;;4775489;29;20098;-82
2023/10/09 03:19:25;;;;;;;99.63;64.40;;;13.70;99.90;;;;;;4782154;29;20050;-82
2023/10/09 03:21:50;;;;;;;118.25;67.28;;;13.70;99.90;;;;;;4787079;29;20042;-82
2023/10/09 03:24:16;;;;;;;93.78;59.85;;;13.70;99.90;;;;;;4780036;29;20045;-82
2023/10/09 03:26:44;;;;;;;104.38;66.72;;;13.70;99.90;;;;;;4787128;29;20091;-81
2023/10/09 03:29:10;;;;;;;108.13;64.57;;;13.70;99.90;;;;;;4789359;29;20043;-82
2023/10/09 03:31:37;;;;;;;101.32;60.28;;;13.70;99.90;;;;;;4797275;29;20054;-82
2023/10/09 03:34:08;;;;;;;117.47;67.38;;;13.80;99.90;;;;;;4772559;29;20517;-82
2023/10/09 03:36:38;;;;;;;115.22;62.90;;;13.80;99.90;;;;;;4787955;29;20533;-82
2023/10/09 03:41:54;;;;;;;97.25;61.15;;;13.80;99.90;;;;;;4802382;29;20149;-82
2023/10/09 03:44:19;;;;;;;103.43;65.30;;;13.80;99.90;;;;;;4788017;29;20042;-82
2023/10/09 03:46:46;;;;;;;101.68;63.00;;;13.80;99.90;;;;;;4804400;29;20054;-82
2023/10/09 03:49:13;;;;;;;119.07;67.18;;;13.80;99.90;;;;;;4775205;29;20070;-82
2023/10/09 03:51:39;;;;;;;137.88;74.65;;;13.80;99.90;;;;;;4776939;29;20045;-82
2023/10/09 03:54:07;;;;;;;104.95;66.25;;;13.90;99.90;;;;;;4793530;29;20055;-82
2023/10/09 03:56:34;;;;;;;104.20;65.38;;;13.90;99.90;;;;;;4789925;29;20410;-82
2023/10/09 03:59:01;;;;;;;154.98;82.85;;;14.00;99.90;;;;;;4789796;29;20047;-82
2023/10/09 04:01:37;;;;;;;106.10;66.68;;;14.00;99.90;;;;;;4787224;29;20066;-82
2023/10/09 04:04:05;;;;;;;122.75;67.45;;;14.00;99.90;;;;;;4788385;29;20038;-82
2023/10/09 04:06:34;;;;;;;110.95;69.25;;;14.10;99.90;;;;;;4790697;29;20043;-82
2023/10/09 04:09:13;;;;;;;102.22;66.50;;;14.10;99.90;;;;;;4794855;29;20133;-82
2023/10/09 04:11:43;;;;;;;112.25;68.22;;;14.10;99.90;;;;;;4772367;29;20050;-82
2023/10/09 04:14:13;;;;;;;139.88;76.80;;;14.20;99.90;;;;;;4787043;29;20047;-82
2023/10/09 04:16:51;;;;;;;102.60;65.40;;;14.20;99.90;;;;;;4789075;29;20046;-82
2023/10/09 04:19:21;;;;;;;107.93;67.35;;;14.30;99.90;;;;;;4796547;29;20057;-82
2023/10/09 04:21:48;;;;;;;91.25;60.20;;;14.30;99.90;;;;;;4792496;29;20103;-82
2023/10/09 04:26:44;;;;;;;84.72;59.47;;;14.40;99.90;;;;;;4789913;29;20050;-82
2023/10/09 04:29:28;;;;;;;92.47;61.10;;;14.40;99.90;;;;;;4774632;29;20077;-82
2023/10/09 04:32:00;;;;;;;94.32;58.92;;;14.40;99.90;;;;;;4778645;29;20069;-82
2023/10/09 04:34:34;;;;;;;96.85;61.20;;;14.50;99.90;;;;;;4789299;29;20498;-82
2023/10/09 04:37:01;;;;;;;94.25;62.47;;;14.50;99.90;;;;;;4789387;29;20047;-82
2023/10/09 06:45:08;;;;;;;30.98;24.02;;;15.40;99.90;;;;;;4827250;29;20408;-84
2023/10/09 06:47:41;;;;;;;30.98;22.83;;;15.50;99.90;;;;;;4827059;29;20049;-84
2023/10/09 06:52:57;;;;;;;28.42;20.63;;;15.50;99.90;;;;;;4827218;29;20565;-84
2023/10/09 08:44:15;;;;;;;23.38;15.38;;;17.00;99.90;;;;;;4818357;29;20111;-82
2023/10/09 08:46:42;;;;;;;24.70;14.82;;;17.00;99.90;;;;;;4792169;29;20038;-82
2023/10/09 08:49:10;;;;;;;24.05;15.57;;;17.00;99.90;;;;;;4807263;29;20488;-82
2023/10/09 08:51:37;;;;;;;59.13;24.98;;;17.10;99.90;;;;;;4792213;29;20049;-82
2023/10/09 08:54:04;;;;;;;25.30;14.48;;;17.10;99.90;;;;;;4807467;29;20054;-82
2023/10/09 08:56:30;;;;;;;61.70;28.85;;;17.10;99.90;;;;;;4807524;29;20050;-83
2023/10/09 08:58:59;;;;;;;26.23;14.85;;;17.10;99.90;;;;;;4792422;29;20050;-83
2023/10/09 09:01:25;;;;;;;20.50;13.63;;;17.20;99.90;;;;;;4807024;29;20053;-83
2023/10/09 09:03:55;;;;;;;22.52;13.88;;;17.20;99.90;;;;;;4792027;29;20498;-83
2023/10/09 09:06:23;;;;;;;22.77;14.52;;;17.20;99.90;;;;;;4792231;29;20494;-83
2023/10/09 09:08:54;;;;;;;20.60;13.45;;;17.20;99.90;;;;;;4791994;29;20042;-82
2023/10/09 09:11:24;;;;;;;19.40;13.55;;;17.20;99.90;;;;;;4807052;29;20067;-83
2023/10/09 09:14:06;;;;;;;23.05;13.40;;;17.20;99.90;;;;;;4792310;29;20046;-82
2023/10/09 09:16:48;;;;;;;20.98;13.80;;;17.20;99.90;;;;;;4808119;29;20470;-83
2023/10/09 09:19:17;;;;;;;25.95;14.00;;;17.20;99.90;;;;;;4806813;29;20069;-82
2023/10/09 09:22:11;;;;;;;20.67;13.80;;;17.10;99.90;;;;;;4792141;29;20073;-83
2023/10/09 09:24:38;;;;;;;24.00;14.05;;;17.10;99.90;;;;;;4807165;29;20050;-82
2023/10/09 09:27:20;;;;;;;20.88;13.10;;;17.10;99.90;;;;;;4806733;29;20047;-82
2023/10/09 09:29:53;;;;;;;20.95;13.90;;;17.00;99.90;;;;;;4807134;29;20179;-82
2023/10/09 09:32:35;;;;;;;17.98;13.10;;;17.00;99.90;;;;;;4806879;29;20114;-82
2023/10/09 09:35:04;;;;;;;24.42;14.23;;;17.00;99.90;;;;;;4806591;29;20078;-82
2023/10/09 09:40:15;;;;;;;22.90;13.32;;;17.10;99.90;;;;;;4806705;29;20058;-83
2023/10/09 09:42:48;;;;;;;24.92;13.73;;;17.20;99.90;;;;;;4791406;29;20486;-83
2023/10/09 09:45:14;;;;;;;17.30;11.90;;;17.20;99.90;;;;;;4793005;29;20040;-83
2023/10/09 09:47:46;;;;;;;22.45;13.02;;;17.20;99.90;;;;;;4795136;29;20051;-82
2023/10/09 09:50:22;;;;;;;21.58;12.88;;;17.10;99.90;;;;;;4810286;29;20042;-82
2023/10/09 09:52:49;;;;;;;16.77;10.75;;;17.20;99.90;;;;;;4794950;29;20091;-82
2023/10/09 09:55:22;;;;;;;21.90;11.95;;;17.10;99.90;;;;;;4810212;29;20166;-82
2023/10/09 09:57:52;;;;;;;17.98;12.70;;;17.10;99.90;;;;;;4795120;29;20053;-82
2023/10/09 10:00:43;;;;;;;17.58;11.65;;;17.10;99.90;;;;;;4810252;29;20404;-82
2023/10/09 10:03:14;;;;;;;21.38;12.32;;;17.10;99.90;;;;;;4794574;29;20410;-82
2023/10/09 10:05:42;;;;;;;20.77;12.48;;;17.00;99.90;;;;;;4809668;29;20072;-83
2023/10/09 10:08:13;;;;;;;19.77;11.57;;;17.00;99.90;;;;;;4809753;29;20042;-82
2023/10/09 10:11:04;;;;;;;19.17;11.77;;;17.00;99.90;;;;;;4809722;29;20478;-82
2023/10/09 10:13:42;;;;;;;18.85;11.45;;;17.00;99.90;;;;;;4809591;29;20497;-83
2023/10/09 10:16:20;;;;;;;18.75;10.15;;;17.10;99.90;;;;;;4794533;29;20081;-82
2023/10/09 10:18:56;;;;;;;18.58;10.52;;;17.10;99.90;;;;;;4809933;29;20054;-82
2023/10/09 10:22:01;;;;;;;18.02;10.77;;;17.20;99.90;;;;;;4794468;29;20050;-82
2023/10/09 10:24:51;;;;;;;17.90;10.13;;;17.20;99.90;;;;;;4808631;29;20498;-82
2023/10/09 10:27:24;;;;;;;17.88;10.05;;;17.40;99.90;;;;;;4794507;29;20043;-82
2023/10/09 10:30:18;;;;;;;18.67;10.88;;;17.50;99.90;;;;;;4809503;29;20053;-82
2023/10/09 10:33:09;;;;;;;21.27;10.85;;;17.60;99.90;;;;;;4809262;29;20061;-82
2023/10/09 10:38:21;;;;;;;18.08;9.65;;;18.00;99.90;;;;;;4809536;29;20089;-82
2023/10/09 10:40:56;;;;;;;17.65;9.77;;;18.00;99.90;;;;;;4794257;29;20268;-82
2023/10/09 10:43:33;;;;;;;19.65;9.73;;;18.00;99.90;;;;;;4794112;29;20082;-82
2023/10/09 10:46:23;;;;;;;22.05;10.25;;;18.10;99.90;;;;;;4794138;29;20043;-82
2023/10/09 10:48:58;;;;;;;16.08;9.60;;;18.10;99.90;;;;;;4809053;29;20509;-81
2023/10/09 10:51:34;;;;;;;18.10;9.93;;;18.10;99.90;;;;;;4794133;29;20042;-81
2023/10/09 10:54:26;;;;;;;17.75;9.50;;;18.20;99.90;;;;;;4809171;29;20054;-82
2023/10/09 10:56:47;;;;;;;16.65;9.52;;;18.20;99.90;;;;;;4807769;29;20054;-82
2023/10/09 10:59:13;;;;;;;15.45;9.38;;;18.30;99.90;;;;;;4809039;29;20061;-82
2023/10/09 11:02:13;;;;;;;16.75;9.30;;;18.30;99.90;;;;;;4793915;29;20413;-81
2023/10/09 11:04:43;;;;;;;15.25;9.57;;;18.30;99.90;;;;;;4793854;29;20043;-82
2023/10/09 11:07:09;;;;;;;21.58;9.48;;;18.40;99.90;;;;;;4793863;29;20053;-82
2023/10/09 11:15:47;;;;;;;17.15;9.10;;;18.50;99.90;;;;;;4798431;29;20046;-82
2023/10/09 11:18:23;;;;;;;16.48;8.93;;;18.50;99.90;;;;;;4809280;29;20059;-81
2023/10/09 11:21:22;;;;;;;17.27;9.75;;;18.40;99.90;;;;;;4808599;29;20061;-81
2023/10/09 11:26:40;;;;;;;17.83;9.88;;;18.40;99.90;;;;;;4798681;29;20540;-82
2023/10/09 11:29:29;;;;;;;16.20;9.15;;;18.30;99.90;;;;;;4808551;29;20052;-82
2023/10/09 11:32:17;;;;;;;16.20;9.15;;;18.30;99.90;;;;;;4793345;29;20038;-81
2023/10/09 11:34:51;;;;;;;15.65;9.15;;;18.20;99.90;;;;;;4808348;29;20588;-82
2023/10/09 11:40:00;;;;;;;18.33;9.98;;;18.30;99.90;;;;;;4808519;29;20075;-82
2023/10/09 11:42:36;;;;;;;15.88;9.07;;;18.50;99.90;;;;;;4807975;29;20054;-82
2023/10/09 11:45:19;;;;;;;19.52;10.00;;;18.70;99.90;;;;;;4808149;29;20089;-82
2023/10/09 11:47:56;;;;;;;19.95;9.95;;;19.10;99.90;;;;;;4808206;29;20053;-81
2023/10/09 11:50:42;;;;;;;14.45;9.13;;;19.50;99.90;;;;;;4808047;29;20038;-81
2023/10/09 11:53:09;;;;;;;15.43;9.30;;;19.60;99.90;;;;;;4792863;29;20107;-82
2023/10/09 11:55:36;;;;;;;13.75;8.55;;;19.70;99.90;;;;;;4808155;29;20093;-82
2023/10/09 11:58:04;;;;;;;20.00;8.95;;;19.80;99.90;;;;;;4807840;29;20057;-82
2023/10/09 12:00:36;;;;;;;15.82;9.35;;;19.70;99.90;;;;;;4792766;29;20085;-82
2023/10/09 12:03:05;;;;;;;18.53;8.90;;;19.70;99.90;;;;;;4807808;29;20042;-82
2023/10/09 12:05:32;;;;;;;15.77;8.70;;;19.60;99.90;;;;;;4807880;29;20043;-82
2023/10/09 12:08:01;;;;;;;14.48;8.40;;;19.60;99.90;;;;;;4807326;29;20038;-81
2023/10/09 12:10:27;;;;;;;14.55;8.07;;;19.50;99.90;;;;;;4807748;29;20042;-81
2023/10/09 12:12:53;;;;;;;12.20;7.35;;;19.40;99.90;;;;;;4807636;29;20069;-81
2023/10/09 12:15:20;;;;;;;15.60;8.02;;;19.30;99.90;;;;;;4807455;29;20102;-82
2023/10/09 12:17:47;;;;;;;13.55;8.23;;;19.30;99.90;;;;;;4807567;29;20490;-83
2023/10/09 12:20:31;;;;;;;12.90;7.80;;;19.20;99.90;;;;;;4807489;29;20107;-83
2023/10/09 12:22:58;;;;;;;11.93;6.68;;;19.20;99.90;;;;;;4792396;29;20050;-81
2023/10/09 12:25:25;;;;;;;12.07;7.05;;;19.10;99.90;;;;;;4807459;29;20077;-82
2023/10/09 12:27:54;;;;;;;10.35;6.18;;;19.10;99.90;;;;;;4807713;29;20069;-81
2023/10/09 12:30:26;;;;;;;12.85;7.32;;;19.00;99.90;;;;;;4807526;29;20446;-82
2023/10/09 12:32:53;;;;;;;12.13;6.70;;;19.00;99.90;;;;;;4792273;29;20046;-82
2023/10/09 12:35:18;;;;;;;12.65;6.45;;;19.00;99.90;;;;;;4807139;29;20060;-82
2023/10/09 12:37:44;;;;;;;13.60;6.22;;;19.00;99.90;;;;;;4792464;29;20049;-83
2023/10/09 12:40:10;;;;;;;11.68;6.07;;;19.00;99.90;;;;;;4807386;29;20525;-81
2023/10/09 12:42:36;;;;;;;13.55;6.07;;;19.10;99.90;;;;;;4807159;29;20046;-81
2023/10/09 12:45:08;;;;;;;11.57;6.20;;;19.20;99.90;;;;;;4807131;29;20050;-82
2023/10/09 12:47:37;;;;;;;11.15;5.60;;;19.30;99.90;;;;;;4807135;29;20038;-81
2023/10/09 12:50:12;;;;;;;11.95;5.70;;;19.30;99.90;;;;;;4807061;29;20080;-81
2023/10/09 12:52:38;;;;;;;12.25;5.32;;;19.40;99.90;;;;;;4807121;29;20103;-82
2023/10/09 12:55:08;;;;;;;9.55;5.18;;;19.20;99.90;;;;;;4806902;29;20502;-81
2023/10/09 12:57:34;;;;;;;9.43;5.50;;;19.20;99.90;;;;;;4807148;29;20046;-82
2023/10/09 12:59:59;;;;;;;13.07;5.30;;;19.10;99.90;;;;;;4792199;29;20054;-81
2023/10/09 13:02:28;;;;;;;11.88;5.55;;;19.10;99.90;;;;;;4806868;29;20056;-81
2023/10/09 13:05:00;;;;;;;11.32;5.30;;;19.00;99.90;;;;;;4807022;29;20046;-82
2023/10/09 13:07:26;;;;;;;10.85;5.90;;;19.00;99.90;;;;;;4807075;29;20046;-82
2023/10/09 13:10:12;;;;;;;11.80;5.45;;;19.00;99.90;;;;;;4807062;29;20090;-82
2023/10/09 13:12:43;;;;;;;9.10;4.90;;;19.00;99.90;;;;;;4792056;29;20107;-82
2023/10/09 13:15:09;;;;;;;11.50;5.13;;;19.00;99.90;;;;;;4806679;29;20046;-81
2023/10/09 13:17:38;;;;;;;10.95;5.43;;;19.00;99.90;;;;;;4807086;29;20086;-82
2023/10/09 13:20:27;;;;;;;9.95;4.90;;;19.00;99.90;;;;;;4791487;29;20107;-82
2023/10/09 13:22:53;;;;;;;13.57;5.25;;;18.90;99.90;;;;;;4806742;29;20054;-81
2023/10/09 13:25:24;;;;;;;11.82;4.97;;;18.90;99.90;;;;;;4806620;29;20459;-81
2023/10/09 13:27:50;;;;;;;9.98;5.47;;;18.90;99.90;;;;;;4791753;29;20034;-82
2023/10/09 13:30:23;;;;;;;13.10;5.45;;;18.90;99.90;;;;;;4807031;29;20080;-81
2023/10/09 13:32:50;;;;;;;9.38;5.03;;;18.90;99.90;;;;;;4806904;29;20054;-82
2023/10/09 13:35:18;;;;;;;11.45;5.32;;;18.90;99.90;;;;;;4806662;29;20046;-81
2023/10/09 13:37:53;;;;;;;12.18;5.40;;;19.00;99.90;;;;;;4806832;29;20043;-81
2023/10/09 13:40:28;;;;;;;10.23;5.85;;;19.00;99.90;;;;;;4806828;29;20058;-82
2023/10/09 13:42:58;;;;;;;13.15;5.70;;;19.00;99.90;;;;;;4806565;29;20074;-82
2023/10/09 13:45:28;;;;;;;12.93;6.18;;;19.00;99.90;;;;;;4806692;29;20042;-82
2023/10/09 13:47:57;;;;;;;12.50;6.15;;;18.90;99.90;;;;;;4806959;29;20405;-82
2023/10/09 13:50:32;;;;;;;11.07;5.30;;;18.90;99.90;;;;;;4806904;29;20516;-82
2023/10/09 13:52:58;;;;;;;11.20;5.15;;;18.90;99.90;;;;;;4806957;29;20085;-82
2023/10/09 13:55:31;;;;;;;8.27;4.30;;;18.90;99.90;;;;;;4791943;29;20043;-81
2023/10/09 13:58:00;;;;;;;10.95;5.32;;;18.80;99.90;;;;;;4791518;29;20042;-81
2023/10/09 14:00:41;;;;;;;11.93;4.50;;;18.80;99.90;;;;;;4806605;29;20409;-81
2023/10/09 14:03:13;;;;;;;10.32;4.38;;;18.80;99.90;;;;;;4791393;29;20368;-81
2023/10/09 14:05:51;;;;;;;9.10;4.38;;;18.80;99.90;;;;;;4806472;29;20084;-82
2023/10/09 14:08:19;;;;;;;8.93;4.80;;;18.80;99.90;;;;;;4806533;29;20047;-81
2023/10/09 14:10:48;;;;;;;10.30;4.80;;;18.60;99.90;;;;;;4791478;29;20050;-81
2023/10/09 14:13:16;;;;;;;9.80;4.70;;;18.50;99.90;;;;;;4806428;29;20502;-82
2023/10/09 14:15:43;;;;;;;9.98;5.18;;;18.50;99.90;;;;;;4806126;29;20174;-80
2023/10/09 14:18:11;;;;;;;11.02;5.28;;;18.50;99.90;;;;;;4806334;29;20062;-81
2023/10/09 14:20:41;;;;;;;9.65;5.45;;;18.50;99.90;;;;;;4806625;29;20054;-82
2023/10/09 14:23:07;;;;;;;10.98;5.20;;;18.50;99.90;;;;;;4805973;29;20046;-82
2023/10/09 14:25:37;;;;;;;10.70;5.25;;;18.60;99.90;;;;;;4806163;29;20401;-81
2023/10/09 14:28:07;;;;;;;11.80;5.30;;;18.60;99.90;;;;;;4806224;29;20071;-81
2023/10/09 14:30:41;;;;;;;10.77;4.50;;;18.70;99.90;;;;;;4806362;29;20514;-82
2023/10/09 14:33:12;;;;;;;11.57;5.25;;;18.70;99.90;;;;;;4809213;29;20114;-82
2023/10/09 14:35:41;;;;;;;10.57;5.00;;;18.80;99.90;;;;;;4809098;29;20502;-81
2023/10/09 14:38:19;;;;;;;10.25;4.78;;;18.80;99.90;;;;;;4809485;29;20445;-81
2023/10/09 14:40:45;;;;;;;10.23;5.30;;;18.70;99.90;;;;;;4809666;29;20047;-80
2023/10/09 14:43:20;;;;;;;11.30;5.30;;;18.70;99.90;;;;;;4808929;29;20046;-82
2023/10/09 14:45:48;;;;;;;11.98;5.75;;;18.70;99.90;;;;;;4808981;29;20048;-81
2023/10/09 14:48:18;;;;;;;11.45;5.82;;;18.70;99.90;;;;;;4809309;29;20051;-82
2023/10/09 14:50:53;;;;;;;13.20;6.07;;;18.70;99.90;;;;;;4794043;29;20099;-81
2023/10/09 14:53:19;;;;;;;12.10;6.00;;;18.70;99.90;;;;;;4809012;29;20055;-82
2023/10/09 16:31:35;;;;;;;12.32;5.30;;;17.30;99.90;;;;;;5520849;23;20025;-80
2023/10/09 16:34:04;;;;;;;8.75;4.72;;;17.30;99.90;;;;;;4823667;29;20053;-81
2023/10/09 16:36:30;;;;;;;10.23;5.13;;;17.20;99.90;;;;;;4822604;29;20034;-81
2023/10/09 16:38:58;;;;;;;9.98;4.80;;;17.20;99.90;;;;;;4809142;29;20141;-81
2023/10/09 16:41:25;;;;;;;9.85;4.20;;;17.20;99.90;;;;;;4826609;29;20481;-81
2023/10/09 16:43:52;;;;;;;9.43;4.70;;;17.20;99.90;;;;;;4807954;29;20034;-81
2023/10/09 16:56:42;;;;;;;10.20;4.05;;;17.00;99.90;;;;;;4911325;23;20046;-81
2023/10/09 16:59:13;;;;;;;11.00;4.60;;;17.00;99.90;;;;;;4808630;29;20034;-81
2023/10/09 17:01:45;;;;;;;12.90;4.80;;;17.00;99.90;;;;;;4835224;29;20067;-81
2023/10/09 17:04:11;;;;;;;11.55;4.95;;;17.00;99.90;;;;;;4811298;29;20045;-81
2023/10/09 17:06:38;;;;;;;8.73;4.10;;;16.90;99.90;;;;;;4805677;29;20455;-81
2023/10/09 17:09:08;;;;;;;9.10;4.00;;;16.90;99.90;;;;;;4791160;29;20065;-81
2023/10/09 17:11:36;;;;;;;11.65;4.10;;;16.90;99.90;;;;;;4791760;29;20052;-81
2023/10/09 17:14:05;;;;;;;10.55;4.38;;;16.90;99.90;;;;;;4796321;29;20046;-81
2023/10/09 17:16:31;;;;;;;10.10;4.07;;;16.90;99.90;;;;;;4798315;29;20098;-81
2023/10/09 17:18:59;;;;;;;10.77;4.30;;;16.90;99.90;;;;;;4811856;29;20489;-81
2023/10/09 17:21:25;;;;;;;11.50;4.50;;;16.80;99.90;;;;;;4808607;29;20141;-81
2023/10/09 17:23:58;;;;;;;7.65;3.90;;;16.80;99.90;;;;;;4790560;29;20494;-81
2023/10/09 17:26:24;;;;;;;9.48;4.22;;;16.80;99.90;;;;;;4789063;29;20087;-81
2023/10/09 17:28:53;;;;;;;10.45;4.50;;;16.80;99.90;;;;;;4806456;29;20053;-81
2023/10/09 17:31:20;;;;;;;9.30;4.53;;;16.70;99.90;;;;;;4804921;29;20042;-81
2023/10/09 17:33:50;;;;;;;10.27;4.68;;;16.70;99.90;;;;;;4791158;29;20050;-81
2023/10/09 17:36:16;;;;;;;8.23;4.32;;;16.70;99.90;;;;;;4807186;29;20050;-82
2023/10/09 17:39:18;;;;;;;8.82;4.40;;;16.70;99.90;;;;;;4796971;29;20061;-82
2023/10/09 17:42:04;;;;;;;9.07;4.03;;;16.70;99.90;;;;;;4805042;29;20081;-82
2023/10/09 17:45:06;;;;;;;8.30;3.85;;;16.60;99.90;;;;;;4799691;29;20050;-81
2023/10/09 17:47:53;;;;;;;9.55;4.72;;;16.50;99.90;;;;;;4823910;29;20122;-81
2023/10/09 17:50:30;;;;;;;6.80;3.97;;;16.60;99.90;;;;;;4795521;29;20129;-81
2023/10/09 17:53:00;;;;;;;9.93;4.32;;;16.50;99.90;;;;;;4804247;29;20058;-81
2023/10/09 17:55:44;;;;;;;11.43;4.75;;;16.50;99.90;;;;;;4799199;29;20046;-82
2023/10/09 17:58:39;;;;;;;8.73;4.38;;;16.50;99.90;;;;;;4819261;29;20050;-81
2023/10/09 18:01:36;;;;;;;9.68;4.40;;;16.50;99.90;;;;;;4777439;29;20046;-81
2023/10/09 18:04:13;;;;;;;9.52;4.43;;;16.50;99.90;;;;;;4802686;29;20471;-82
2023/10/09 18:06:48;;;;;;;11.20;5.15;;;16.40;99.90;;;;;;4803140;29;20045;-81
2023/10/09 18:09:30;;;;;;;8.48;3.92;;;16.40;99.90;;;;;;4800054;29;20034;-81
2023/10/09 18:12:01;;;;;;;11.25;4.50;;;16.40;99.90;;;;;;4814073;29;20391;-82
2023/10/09 18:14:34;;;;;;;9.35;4.38;;;16.40;99.90;;;;;;4806958;29;20065;-82
2023/10/09 18:17:00;;;;;;;8.73;4.22;;;16.40;99.90;;;;;;4818506;29;20114;-81
2023/10/09 18:19:32;;;;;;;7.22;4.20;;;16.40;99.90;;;;;;4813688;29;20042;-82
2023/10/09 18:22:01;;;;;;;10.50;4.20;;;16.40;99.90;;;;;;4793059;29;20417;-81
2023/10/09 18:24:27;;;;;;;8.15;3.90;;;16.40;99.90;;;;;;4807824;29;20520;-82
2023/10/09 18:26:52;;;;;;;8.88;4.63;;;16.30;99.90;;;;;;4799272;29;20046;-81
2023/10/09 18:29:18;;;;;;;8.50;4.07;;;16.30;99.90;;;;;;4808297;29;20053;-82
2023/10/09 18:31:49;;;;;;;9.15;4.30;;;16.30;99.90;;;;;;4807616;29;20049;-82
2023/10/09 18:34:42;;;;;;;8.65;4.00;;;16.30;99.90;;;;;;4807893;29;20069;-81
2023/10/09 18:37:25;;;;;;;9.80;4.40;;;16.30;99.90;;;;;;4808923;29;20046;-81
2023/10/09 18:39:51;;;;;;;10.68;4.05;;;16.30;99.90;;;;;;4797650;29;20088;-82
2023/10/09 18:42:17;;;;;;;7.72;3.72;;;16.30;99.90;;;;;;4796111;29;20493;-81
2023/10/09 18:44:43;;;;;;;8.98;5.10;;;16.30;99.90;;;;;;4787465;29;20050;-81
2023/10/09 18:47:14;;;;;;;10.18;5.20;;;16.20;99.90;;;;;;4835575;29;20053;-81
2023/10/09 18:49:41;;;;;;;10.02;5.72;;;16.20;99.90;;;;;;4794760;29;20038;-82
2023/10/09 18:52:10;;;;;;;11.75;6.22;;;16.20;99.90;;;;;;4811907;29;20050;-81
2023/10/09 18:54:36;;;;;;;11.40;5.80;;;16.20;99.90;;;;;;4804045;29;20129;-81
2023/10/09 18:57:04;;;;;;;10.82;5.60;;;16.20;99.90;;;;;;4816729;29;20193;-81
2023/10/09 18:59:30;;;;;;;9.65;4.97;;;16.20;99.90;;;;;;4796337;29;20045;-82
2023/10/09 19:01:57;;;;;;;8.38;4.80;;;16.10;99.90;;;;;;4816152;29;20046;-81
2023/10/09 19:04:22;;;;;;;7.70;4.25;;;16.20;99.90;;;;;;4815673;29;20050;-81
2023/10/09 19:06:48;;;;;;;8.77;4.45;;;16.10;99.90;;;;;;4793598;29;20050;-81
2023/10/09 19:09:20;;;;;;;7.75;4.07;;;16.10;99.90;;;;;;4792930;29;20073;-81
2023/10/09 19:11:56;;;;;;;7.93;4.75;;;16.10;99.90;;;;;;4796970;29;20057;-81
2023/10/09 19:14:25;;;;;;;9.30;4.90;;;16.10;99.90;;;;;;4810469;29;20045;-80
2023/10/09 19:16:51;;;;;;;11.25;4.60;;;16.10;99.90;;;;;;4811179;29;20053;-82
2023/10/09 19:19:17;;;;;;;10.38;4.78;;;16.10;99.90;;;;;;4810192;29;20042;-81